Time;durP1;ratioP1;P1;durP2;ratioP2;P2;SDS_P1;SDS_P2;PMS_P1;PMS_P2;Temp;Humidity;BMP_temperature;BMP_pressure;BME280_temperature;BME280_humidity;BME280_pressure;Samples;Min_cycle;Max_cycle;Signal;HPM_P1;HPM_P2
2022/03/19 00:02:18;;;;;;;21.40;10.87;;;6.50;99.90;;;;;;5053407;28;20180;-80
2022/03/19 00:04:44;;;;;;;19.37;9.87;;;6.50;99.90;;;;;;5053124;28;20279;-79
2022/03/19 00:07:10;;;;;;;25.13;10.53;;;6.50;99.90;;;;;;5052903;28;20234;-78
2022/03/19 00:09:35;;;;;;;22.83;10.70;;;6.40;99.90;;;;;;5054338;28;20199;-78
2022/03/19 00:12:01;;;;;;;24.60;10.30;;;6.30;99.90;;;;;;5056567;28;20203;-78
2022/03/19 00:14:27;;;;;;;24.13;10.63;;;6.30;99.90;;;;;;5057353;28;20667;-78
2022/03/19 00:16:53;;;;;;;23.20;10.23;;;6.20;99.90;;;;;;5056612;28;20548;-77
2022/03/19 00:19:18;;;;;;;22.83;10.30;;;6.20;99.90;;;;;;5056374;28;20195;-79
2022/03/19 00:21:44;;;;;;;28.97;10.73;;;6.10;99.90;;;;;;5057338;28;20244;-79
2022/03/19 00:24:10;;;;;;;22.17;10.67;;;6.00;99.90;;;;;;5058404;28;20174;-79
2022/03/19 00:26:36;;;;;;;22.77;10.83;;;6.00;99.90;;;;;;5056649;28;20212;-78
2022/03/19 00:29:02;;;;;;;25.53;11.57;;;6.00;99.90;;;;;;5057103;28;20543;-79
2022/03/19 00:31:28;;;;;;;25.80;11.30;;;6.00;99.90;;;;;;5056806;28;20198;-79
2022/03/19 00:33:55;;;;;;;25.83;11.23;;;5.90;99.90;;;;;;5056570;28;20172;-79
2022/03/19 00:36:20;;;;;;;28.20;11.80;;;5.90;99.90;;;;;;5057487;28;20182;-79
2022/03/19 00:38:46;;;;;;;33.27;12.07;;;5.90;99.90;;;;;;5057538;28;20194;-79
2022/03/19 00:41:13;;;;;;;24.00;11.03;;;5.80;99.90;;;;;;5057898;28;20244;-79
2022/03/19 00:43:39;;;;;;;20.93;11.07;;;5.90;99.90;;;;;;5057597;28;20177;-79
2022/03/19 00:46:05;;;;;;;24.87;10.97;;;5.90;99.90;;;;;;5056740;28;20184;-78
2022/03/19 00:48:30;;;;;;;28.47;11.67;;;5.90;99.90;;;;;;5056644;28;20195;-78
2022/03/19 00:50:56;;;;;;;29.87;11.73;;;5.90;99.90;;;;;;5056437;28;20239;-78
2022/03/19 00:53:22;;;;;;;26.93;10.70;;;5.90;99.90;;;;;;5056046;28;20181;-78
2022/03/19 00:55:47;;;;;;;28.97;11.03;;;5.90;99.90;;;;;;5056048;28;20179;-78
2022/03/19 00:58:13;;;;;;;20.33;11.23;;;6.00;99.90;;;;;;5056443;28;20556;-78
2022/03/19 01:00:38;;;;;;;31.60;11.57;;;5.90;99.90;;;;;;5055762;28;20192;-78
2022/03/19 01:03:07;;;;;;;22.87;10.03;;;6.00;99.90;;;;;;5057291;28;20608;-78
2022/03/19 01:05:33;;;;;;;25.90;10.67;;;5.90;99.90;;;;;;5057520;28;20584;-78
2022/03/19 01:07:58;;;;;;;25.20;10.93;;;5.90;99.90;;;;;;5055570;28;20180;-78
2022/03/19 01:10:29;;;;;;;25.20;11.10;;;6.00;99.90;;;;;;5055786;28;20202;-78
2022/03/19 01:12:56;;;;;;;27.03;11.30;;;6.00;99.90;;;;;;5055526;28;20169;-79
2022/03/19 01:15:24;;;;;;;25.07;11.60;;;5.90;99.90;;;;;;5055523;28;20175;-78
2022/03/19 01:17:51;;;;;;;27.73;11.87;;;5.90;99.90;;;;;;5055870;28;20207;-78
2022/03/19 01:20:17;;;;;;;22.47;11.33;;;5.90;99.90;;;;;;5055369;28;20185;-78
2022/03/19 01:22:44;;;;;;;28.47;12.33;;;5.90;99.90;;;;;;5054717;28;20632;-78
2022/03/19 01:25:12;;;;;;;26.20;11.07;;;5.90;99.90;;;;;;5055561;28;20189;-78
2022/03/19 01:27:39;;;;;;;23.30;11.87;;;5.90;99.90;;;;;;5055224;28;20197;-78
2022/03/19 01:30:07;;;;;;;23.23;11.13;;;5.80;99.90;;;;;;5055312;28;20196;-78
2022/03/19 01:32:35;;;;;;;22.57;12.43;;;5.80;99.90;;;;;;5054703;28;20172;-78
2022/03/19 01:35:00;;;;;;;31.43;11.67;;;5.80;99.90;;;;;;5055086;28;20169;-78
2022/03/19 01:37:26;;;;;;;25.80;11.80;;;5.70;99.90;;;;;;5054877;28;20182;-78
2022/03/19 01:39:55;;;;;;;26.90;11.83;;;5.70;99.90;;;;;;5054778;28;20207;-78
2022/03/19 01:42:25;;;;;;;26.27;11.97;;;5.70;99.90;;;;;;5053637;28;20180;-78
2022/03/19 01:44:52;;;;;;;31.30;12.23;;;5.70;99.90;;;;;;5053318;28;20668;-79
2022/03/19 01:47:18;;;;;;;26.43;11.30;;;5.70;99.90;;;;;;5053125;28;20260;-78
2022/03/19 01:49:44;;;;;;;21.80;11.27;;;5.60;99.90;;;;;;5053643;28;20192;-79
2022/03/19 01:52:10;;;;;;;32.03;11.67;;;5.70;99.90;;;;;;5052892;28;20256;-78
2022/03/19 01:54:38;;;;;;;25.73;11.30;;;5.60;99.90;;;;;;5053525;28;20221;-78
2022/03/19 01:57:05;;;;;;;32.43;12.40;;;5.60;99.90;;;;;;5053367;28;20176;-78
2022/03/19 01:59:36;;;;;;;27.83;11.67;;;5.50;99.90;;;;;;5054542;28;20190;-78
2022/03/19 02:02:06;;;;;;;27.47;12.13;;;5.50;99.90;;;;;;5053713;28;20678;-78
2022/03/19 02:04:36;;;;;;;28.50;12.73;;;5.50;99.90;;;;;;5053724;28;20224;-78
2022/03/19 02:07:03;;;;;;;28.70;11.77;;;5.50;99.90;;;;;;5053696;28;20180;-78
2022/03/19 02:09:29;;;;;;;29.17;12.33;;;5.40;99.90;;;;;;5053760;28;20197;-78
2022/03/19 02:11:55;;;;;;;24.20;12.07;;;5.40;99.90;;;;;;5053102;28;20675;-78
2022/03/19 02:14:21;;;;;;;29.60;12.30;;;5.30;99.90;;;;;;5053782;28;20173;-79
2022/03/19 02:16:47;;;;;;;36.93;12.80;;;5.30;99.90;;;;;;5053528;28;20174;-77
2022/03/19 02:19:13;;;;;;;25.03;12.47;;;5.30;99.90;;;;;;5053020;28;20366;-78
2022/03/19 02:21:45;;;;;;;28.53;12.10;;;5.30;99.90;;;;;;5052457;28;20226;-78
2022/03/19 02:26:56;;;;;;;26.03;12.37;;;5.20;99.90;;;;;;5054746;28;20249;-78
2022/03/19 02:29:23;;;;;;;31.03;12.97;;;5.10;99.90;;;;;;5052983;28;20261;-78
2022/03/19 02:31:52;;;;;;;21.87;12.10;;;5.20;99.90;;;;;;5053156;28;20200;-78
2022/03/19 02:34:18;;;;;;;26.53;12.83;;;5.20;99.90;;;;;;5052237;28;20186;-78
2022/03/19 02:36:44;;;;;;;30.90;13.87;;;5.20;99.90;;;;;;5053158;28;20252;-78
2022/03/19 02:39:13;;;;;;;38.30;14.13;;;5.30;99.90;;;;;;5054471;28;20602;-78
2022/03/19 02:41:49;;;;;;;29.17;13.57;;;5.20;99.90;;;;;;5053852;28;20173;-79
2022/03/19 02:44:17;;;;;;;26.70;13.23;;;5.20;99.90;;;;;;5053991;28;20173;-78
2022/03/19 02:46:45;;;;;;;30.67;13.50;;;5.20;99.90;;;;;;5054216;28;20621;-79
2022/03/19 02:49:11;;;;;;;28.07;12.13;;;5.20;99.90;;;;;;5054418;28;20193;-78
2022/03/19 02:51:40;;;;;;;32.13;12.37;;;5.20;99.90;;;;;;5053961;28;20211;-78
2022/03/19 02:54:08;;;;;;;26.70;12.27;;;5.20;99.90;;;;;;5054643;28;20176;-78
2022/03/19 02:56:36;;;;;;;29.50;11.77;;;5.30;99.90;;;;;;5054064;28;20269;-78
2022/03/19 02:59:09;;;;;;;25.90;10.83;;;5.20;99.90;;;;;;5054154;28;20251;-78
2022/03/19 03:01:37;;;;;;;29.57;11.83;;;5.20;99.90;;;;;;5054901;28;20233;-78
2022/03/19 03:04:03;;;;;;;28.83;11.47;;;5.20;99.90;;;;;;5056826;28;20185;-78
2022/03/19 03:06:33;;;;;;;25.20;11.03;;;5.10;99.90;;;;;;5054825;28;20202;-78
2022/03/19 03:08:59;;;;;;;24.00;10.90;;;5.00;99.90;;;;;;5053652;28;20198;-78
2022/03/19 03:11:24;;;;;;;28.93;11.33;;;5.00;99.90;;;;;;5052816;28;20201;-78
2022/03/19 03:13:50;;;;;;;22.43;10.73;;;5.00;99.90;;;;;;5053289;28;20197;-78
2022/03/19 03:16:16;;;;;;;27.63;11.07;;;4.90;99.90;;;;;;5052877;28;20234;-78
2022/03/19 03:18:42;;;;;;;21.17;10.03;;;4.80;99.90;;;;;;5052462;28;20209;-78
2022/03/19 03:21:07;;;;;;;27.60;10.40;;;4.80;99.90;;;;;;5053644;28;20188;-78
2022/03/19 03:23:33;;;;;;;21.50;10.10;;;4.80;99.90;;;;;;5052701;28;20198;-78
2022/03/19 03:25:59;;;;;;;18.63;8.83;;;4.80;99.90;;;;;;5053208;28;20243;-78
2022/03/19 03:28:25;;;;;;;20.20;9.80;;;4.80;99.90;;;;;;5052552;28;20670;-78
2022/03/19 03:30:50;;;;;;;23.03;10.10;;;4.80;99.90;;;;;;5052863;28;20680;-78
2022/03/19 03:33:16;;;;;;;25.83;9.97;;;4.70;99.90;;;;;;5052341;28;20174;-78
2022/03/19 03:35:42;;;;;;;23.83;9.70;;;4.60;99.90;;;;;;5052835;28;20214;-78
2022/03/19 03:38:07;;;;;;;20.97;9.03;;;4.70;99.90;;;;;;5054373;28;20193;-78
2022/03/19 03:40:33;;;;;;;20.17;8.77;;;4.60;99.90;;;;;;5055117;28;20300;-79
2022/03/19 03:42:59;;;;;;;18.70;9.40;;;4.60;99.90;;;;;;5053666;28;20222;-78
2022/03/19 03:45:29;;;;;;;18.77;8.67;;;4.60;99.90;;;;;;5057130;28;20177;-78
2022/03/19 03:47:54;;;;;;;18.50;9.10;;;4.70;99.90;;;;;;5057513;28;20177;-78
2022/03/19 03:50:20;;;;;;;23.97;8.87;;;4.60;99.90;;;;;;5056760;28;20190;-78
2022/03/19 03:52:46;;;;;;;22.03;8.57;;;4.60;99.90;;;;;;5055984;28;20184;-77
2022/03/19 03:55:12;;;;;;;19.07;7.80;;;4.60;99.90;;;;;;5055649;28;20170;-78
2022/03/19 03:57:38;;;;;;;16.30;7.80;;;4.50;99.90;;;;;;5055080;28;20261;-77
2022/03/19 04:02:31;;;;;;;19.93;7.50;;;4.50;99.90;;;;;;5055231;28;20224;-80
2022/03/19 04:04:57;;;;;;;16.10;7.70;;;4.50;99.90;;;;;;5057605;28;20586;-81
2022/03/19 04:07:23;;;;;;;20.93;8.50;;;4.40;99.90;;;;;;5057315;28;20637;-81
2022/03/19 04:09:49;;;;;;;24.80;8.03;;;4.40;99.90;;;;;;5056072;28;20191;-80
2022/03/19 04:12:15;;;;;;;24.70;8.20;;;4.50;99.90;;;;;;5055733;28;20763;-80
2022/03/19 04:14:41;;;;;;;25.57;7.90;;;4.70;99.90;;;;;;5061329;22;20281;-78
2022/03/19 04:17:07;;;;;;;15.37;6.77;;;4.60;99.90;;;;;;5036859;28;20175;-77
2022/03/19 04:19:32;;;;;;;19.80;7.27;;;4.60;99.90;;;;;;5038198;28;20197;-78
2022/03/19 04:21:58;;;;;;;15.77;6.57;;;4.70;99.90;;;;;;5037141;28;20257;-77
2022/03/19 04:24:25;;;;;;;17.60;6.80;;;4.70;99.90;;;;;;5035818;28;20548;-77
2022/03/19 04:26:51;;;;;;;18.10;7.53;;;4.60;99.90;;;;;;5036061;28;20170;-78
2022/03/19 04:29:16;;;;;;;17.20;7.17;;;4.60;99.90;;;;;;5035966;28;20252;-78
2022/03/19 04:31:42;;;;;;;13.73;6.20;;;4.60;99.90;;;;;;5038903;28;20265;-78
2022/03/19 04:34:08;;;;;;;15.93;6.07;;;4.50;99.90;;;;;;5036163;28;20263;-77
2022/03/19 04:36:36;;;;;;;15.13;6.73;;;4.60;99.90;;;;;;5035611;28;20174;-78
2022/03/19 04:39:03;;;;;;;19.00;6.43;;;4.50;99.90;;;;;;5035462;28;20678;-77
2022/03/19 04:41:30;;;;;;;16.63;6.57;;;4.60;99.90;;;;;;5035441;28;20185;-78
2022/03/19 04:43:55;;;;;;;21.13;6.57;;;4.60;99.90;;;;;;5035259;28;20189;-78
2022/03/19 04:46:21;;;;;;;22.70;6.27;;;4.60;99.90;;;;;;5035068;28;20177;-78
2022/03/19 04:48:48;;;;;;;16.87;5.77;;;4.60;99.90;;;;;;5035735;28;20194;-78
2022/03/19 04:51:17;;;;;;;14.30;5.63;;;4.60;99.90;;;;;;5035141;28;20212;-78
2022/03/19 04:53:49;;;;;;;14.03;5.63;;;4.60;99.90;;;;;;5035235;28;20637;-79
2022/03/19 04:56:15;;;;;;;17.90;6.10;;;4.60;99.90;;;;;;5034234;28;20166;-79
2022/03/19 04:58:41;;;;;;;18.87;5.50;;;4.70;99.90;;;;;;5034839;28;20678;-79
2022/03/19 05:01:06;;;;;;;22.93;5.33;;;4.70;99.90;;;;;;5034298;28;20187;-78
2022/03/19 05:03:33;;;;;;;15.50;5.80;;;4.80;99.90;;;;;;5018345;28;20230;-78
2022/03/19 05:05:58;;;;;;;15.80;5.43;;;4.70;99.90;;;;;;5035216;28;20550;-79
2022/03/19 05:08:24;;;;;;;18.73;5.93;;;4.70;99.90;;;;;;5035234;28;20610;-78
2022/03/19 05:13:34;;;;;;;15.50;5.30;;;4.60;99.90;;;;;;5037066;28;20227;-78
2022/03/19 05:16:00;;;;;;;16.27;5.57;;;4.70;99.90;;;;;;5035755;28;20172;-78
2022/03/19 05:18:26;;;;;;;17.53;4.70;;;4.70;99.90;;;;;;5035160;28;20197;-78
2022/03/19 05:20:53;;;;;;;12.53;5.40;;;4.70;99.90;;;;;;5035212;28;20175;-78
2022/03/19 05:23:18;;;;;;;17.13;4.73;;;4.60;99.90;;;;;;5034526;28;20178;-79
2022/03/19 05:25:44;;;;;;;17.77;5.60;;;4.70;99.90;;;;;;5036648;28;20204;-78
2022/03/19 05:28:10;;;;;;;17.77;5.03;;;4.60;99.90;;;;;;5037135;28;20193;-77
2022/03/19 05:30:37;;;;;;;16.37;5.47;;;4.70;99.90;;;;;;5033251;28;20205;-79
2022/03/19 05:33:04;;;;;;;22.13;5.83;;;4.80;99.90;;;;;;5033104;28;20553;-77
2022/03/19 05:35:31;;;;;;;19.63;5.73;;;4.80;99.90;;;;;;5032926;28;20638;-79
2022/03/19 05:37:59;;;;;;;29.20;7.23;;;4.80;99.90;;;;;;5033940;28;20568;-77
2022/03/19 05:40:26;;;;;;;20.53;6.47;;;4.80;99.90;;;;;;5033022;28;20178;-77
2022/03/19 05:42:51;;;;;;;17.13;6.30;;;4.70;99.90;;;;;;5033147;28;20255;-78
2022/03/19 05:45:20;;;;;;;19.60;6.90;;;4.80;99.90;;;;;;5033341;28;20296;-78
2022/03/19 05:47:46;;;;;;;16.90;6.33;;;4.60;99.90;;;;;;5033381;28;20536;-79
2022/03/19 05:50:12;;;;;;;24.93;6.80;;;4.70;99.90;;;;;;5034191;28;20224;-78
2022/03/19 05:52:38;;;;;;;19.23;6.60;;;4.60;99.90;;;;;;5033655;28;20252;-78
2022/03/19 05:55:04;;;;;;;19.83;7.07;;;4.60;99.90;;;;;;5033807;28;20197;-79
2022/03/19 05:57:30;;;;;;;20.20;6.90;;;4.70;99.90;;;;;;5032903;28;20171;-80
2022/03/19 05:59:59;;;;;;;22.17;8.10;;;4.70;99.90;;;;;;5032967;28;20185;-78
2022/03/19 06:02:25;;;;;;;27.07;7.73;;;4.70;99.90;;;;;;5033242;28;20177;-78
2022/03/19 06:04:52;;;;;;;24.13;8.37;;;4.80;99.90;;;;;;5033208;28;20170;-79
2022/03/19 06:07:18;;;;;;;21.30;6.90;;;4.80;99.90;;;;;;5032527;28;20186;-79
2022/03/19 06:09:43;;;;;;;23.03;8.40;;;4.80;99.90;;;;;;5033647;28;20201;-79
2022/03/19 06:12:09;;;;;;;19.67;7.50;;;4.90;99.90;;;;;;5033999;28;20662;-80
2022/03/19 06:14:35;;;;;;;15.90;6.77;;;5.00;99.90;;;;;;5033741;28;20276;-77
2022/03/19 06:17:01;;;;;;;19.30;7.03;;;5.10;99.90;;;;;;5032781;28;20238;-78
2022/03/19 06:19:26;;;;;;;22.97;6.50;;;5.10;99.90;;;;;;5032581;28;20192;-79
2022/03/19 06:21:52;;;;;;;17.87;7.13;;;5.20;99.90;;;;;;5032615;28;20177;-77
2022/03/19 06:24:20;;;;;;;20.93;6.37;;;5.20;99.90;;;;;;5032930;28;20585;-78
2022/03/19 06:26:46;;;;;;;24.73;8.77;;;5.20;99.90;;;;;;5033440;28;20186;-79
2022/03/19 06:29:12;;;;;;;28.70;7.77;;;5.40;99.90;;;;;;5033009;28;20191;-79
2022/03/19 06:31:37;;;;;;;22.27;7.00;;;5.40;99.90;;;;;;5033204;28;20200;-78
2022/03/19 06:34:03;;;;;;;23.17;7.30;;;5.50;99.90;;;;;;5034118;28;20620;-78
2022/03/19 06:39:13;;;;;;;24.40;7.50;;;6.00;99.90;;;;;;5035596;28;20202;-78
2022/03/19 06:41:39;;;;;;;15.67;6.53;;;6.10;99.90;;;;;;5033284;28;20261;-78
2022/03/19 06:44:05;;;;;;;27.83;8.13;;;6.00;99.90;;;;;;5033308;28;20230;-78
2022/03/19 06:46:31;;;;;;;25.93;6.97;;;6.20;99.90;;;;;;5032668;28;20233;-78
2022/03/19 06:48:56;;;;;;;17.13;6.30;;;6.90;99.90;;;;;;5032651;28;20247;-80
2022/03/19 06:51:22;;;;;;;19.77;6.20;;;7.10;99.90;;;;;;5032500;28;20246;-78
2022/03/19 06:53:48;;;;;;;21.33;6.97;;;7.40;99.90;;;;;;5033273;28;20180;-77
2022/03/19 06:56:15;;;;;;;19.73;6.43;;;7.40;99.90;;;;;;5033739;28;20635;-78
2022/03/19 06:58:41;;;;;;;25.90;7.07;;;7.30;99.90;;;;;;5034552;28;20547;-79
2022/03/19 07:01:15;;;;;;;23.70;6.67;;;7.80;99.90;;;;;;5034526;28;20246;-78
2022/03/19 07:03:49;;;;;;;18.63;6.47;;;8.20;99.90;;;;;;5031950;28;20201;-76
2022/03/19 07:06:18;;;;;;;20.83;5.70;;;7.60;99.90;;;;;;5032423;28;20176;-78
2022/03/19 07:08:44;;;;;;;19.40;5.90;;;8.20;99.90;;;;;;5034880;28;20998;-77
2022/03/19 07:11:10;;;;;;;20.43;5.83;;;8.50;99.90;;;;;;5032097;28;20216;-77
2022/03/19 07:13:37;;;;;;;18.53;5.90;;;9.10;99.90;;;;;;5032974;28;20260;-77
2022/03/19 07:16:03;;;;;;;15.10;5.87;;;8.90;99.90;;;;;;5034377;28;20166;-78
2022/03/19 07:18:28;;;;;;;16.40;5.90;;;10.10;99.90;;;;;;5033167;28;20205;-78
2022/03/19 07:20:54;;;;;;;13.87;5.47;;;10.10;99.90;;;;;;5032668;28;20750;-78
2022/03/19 07:23:20;;;;;;;15.00;5.70;;;10.90;99.70;;;;;;5032395;28;20178;-77
2022/03/19 07:25:46;;;;;;;17.80;5.57;;;10.80;97.30;;;;;;5031506;28;20182;-78
2022/03/19 07:28:14;;;;;;;14.60;5.20;;;10.60;98.20;;;;;;5030966;28;20680;-77
2022/03/19 07:30:41;;;;;;;19.70;4.77;;;11.30;96.00;;;;;;5030768;28;20194;-78
2022/03/19 07:33:07;;;;;;;15.03;5.73;;;12.50;92.40;;;;;;5030778;28;20800;-76
2022/03/19 07:35:32;;;;;;;16.43;5.13;;;12.40;90.60;;;;;;5030439;28;20299;-76
2022/03/19 07:37:59;;;;;;;18.40;5.10;;;13.50;88.70;;;;;;5030532;28;20218;-75
2022/03/19 07:43:12;;;;;;;18.57;5.00;;;13.90;84.00;;;;;;5032257;28;20192;-76
2022/03/19 07:45:39;;;;;;;18.53;4.83;;;13.60;83.70;;;;;;5030418;28;20228;-75
2022/03/19 07:48:05;;;;;;;14.60;5.17;;;14.30;83.10;;;;;;5030573;28;20174;-76
2022/03/19 07:50:31;;;;;;;14.00;4.60;;;13.30;85.30;;;;;;5030478;28;20170;-76
2022/03/19 07:52:57;;;;;;;12.03;4.33;;;12.10;88.20;;;;;;5030335;28;20653;-76
2022/03/19 07:55:24;;;;;;;12.13;4.17;;;13.60;81.70;;;;;;5030880;28;20174;-76
2022/03/19 07:57:50;;;;;;;12.70;4.30;;;14.10;80.70;;;;;;5030688;28;20181;-76
2022/03/19 08:00:16;;;;;;;15.20;4.93;;;14.20;80.30;;;;;;5030991;28;20170;-77
2022/03/19 08:02:42;;;;;;;11.00;4.20;;;14.30;80.40;;;;;;5031469;28;20272;-79
2022/03/19 08:05:11;;;;;;;16.60;5.23;;;14.30;78.30;;;;;;5031726;28;20236;-77
2022/03/19 08:07:37;;;;;;;15.43;4.70;;;15.20;77.80;;;;;;5030726;28;20656;-76
2022/03/19 08:10:08;;;;;;;17.87;5.23;;;14.30;78.30;;;;;;5031054;28;20236;-76
2022/03/19 08:12:35;;;;;;;14.80;4.50;;;13.70;79.50;;;;;;5030378;28;20209;-78
2022/03/19 08:15:03;;;;;;;15.23;4.67;;;13.40;82.10;;;;;;5030079;28;20229;-76
2022/03/19 08:17:29;;;;;;;11.73;4.90;;;14.80;76.50;;;;;;5029856;28;20542;-76
2022/03/19 08:19:59;;;;;;;14.53;4.40;;;13.90;78.20;;;;;;5030511;28;20272;-76
2022/03/19 08:22:26;;;;;;;16.53;4.90;;;14.00;80.00;;;;;;5030377;28;20280;-77
2022/03/19 08:24:53;;;;;;;12.27;4.17;;;12.80;83.20;;;;;;5030424;28;20787;-77
2022/03/19 08:27:19;;;;;;;16.87;4.33;;;12.40;83.90;;;;;;5030384;28;20667;-77
2022/03/19 08:29:45;;;;;;;11.37;4.63;;;12.70;84.10;;;;;;5030063;28;20740;-76
2022/03/19 08:32:11;;;;;;;10.90;4.00;;;12.20;85.00;;;;;;5033967;28;20199;-77
2022/03/19 08:34:37;;;;;;;11.73;3.70;;;11.60;86.30;;;;;;5034265;28;20174;-77
2022/03/19 08:37:03;;;;;;;12.17;3.87;;;11.70;86.70;;;;;;5033942;28;20233;-77
2022/03/19 08:42:13;;;;;;;9.10;3.20;;;13.10;80.00;;;;;;5035790;28;20207;-77
2022/03/19 08:44:39;;;;;;;10.90;3.73;;;13.50;76.60;;;;;;5034274;28;20224;-76
2022/03/19 08:47:05;;;;;;;13.60;4.17;;;14.00;75.80;;;;;;5033714;28;20184;-78
2022/03/19 08:49:30;;;;;;;11.23;3.43;;;14.20;74.30;;;;;;5033880;28;20289;-77
2022/03/19 08:51:56;;;;;;;19.57;4.10;;;14.40;74.20;;;;;;5033706;28;20198;-78
2022/03/19 08:54:22;;;;;;;11.13;3.47;;;14.00;75.30;;;;;;5033885;28;20213;-77
2022/03/19 08:56:49;;;;;;;11.20;3.80;;;14.00;76.70;;;;;;5033956;28;20197;-76
2022/03/19 08:59:16;;;;;;;12.10;2.80;;;14.50;73.20;;;;;;5033822;28;20622;-77
2022/03/19 09:01:43;;;;;;;11.67;3.37;;;14.00;74.00;;;;;;5033535;28;20261;-78
2022/03/19 09:04:09;;;;;;;11.03;3.00;;;13.70;73.10;;;;;;5033548;28;20181;-77
2022/03/19 09:06:35;;;;;;;8.17;3.10;;;12.80;76.60;;;;;;5033439;28;20785;-77
2022/03/19 09:09:03;;;;;;;9.80;2.70;;;12.30;75.90;;;;;;5033396;28;20190;-76
2022/03/19 09:11:29;;;;;;;8.27;2.60;;;12.10;75.80;;;;;;5033213;28;20206;-78
2022/03/19 09:13:55;;;;;;;8.67;2.67;;;12.00;74.10;;;;;;5033370;28;20186;-77
2022/03/19 09:16:21;;;;;;;10.60;2.77;;;12.00;75.00;;;;;;5033277;28;20181;-78
2022/03/19 09:18:46;;;;;;;12.60;3.10;;;12.10;74.80;;;;;;5033248;28;20190;-77
2022/03/19 09:21:12;;;;;;;7.10;2.07;;;11.80;75.90;;;;;;5032960;28;20650;-77
2022/03/19 09:23:38;;;;;;;9.20;3.33;;;11.70;74.60;;;;;;5033227;28;20264;-77
2022/03/19 09:26:04;;;;;;;12.00;3.10;;;11.80;76.20;;;;;;5033319;28;20280;-77
2022/03/19 09:28:30;;;;;;;9.83;2.53;;;12.10;77.20;;;;;;5032678;28;20224;-77
2022/03/19 09:30:55;;;;;;;4.93;2.60;;;12.00;77.60;;;;;;5032939;28;20568;-78
2022/03/19 09:33:21;;;;;;;5.53;2.40;;;12.20;74.80;;;;;;5033329;28;20223;-78
2022/03/19 09:35:47;;;;;;;9.50;2.90;;;11.90;74.60;;;;;;5032554;28;20227;-76
2022/03/19 09:38:14;;;;;;;14.07;2.97;;;12.10;73.60;;;;;;5032985;28;20278;-75
2022/03/19 09:40:41;;;;;;;9.13;2.60;;;12.20;74.60;;;;;;5032902;28;20778;-76
2022/03/19 09:43:07;;;;;;;9.00;2.47;;;12.30;74.50;;;;;;5032338;28;20628;-75
2022/03/19 09:45:34;;;;;;;8.80;2.13;;;11.80;76.00;;;;;;5032468;28;20661;-76
2022/03/19 09:48:01;;;;;;;7.97;2.10;;;11.80;74.10;;;;;;5032723;28;20237;-76
2022/03/19 09:50:28;;;;;;;8.13;2.57;;;11.80;73.90;;;;;;5032716;28;20171;-76
2022/03/19 09:52:57;;;;;;;10.53;2.93;;;12.00;73.70;;;;;;5032674;28;20174;-76
2022/03/19 09:55:27;;;;;;;18.00;3.43;;;12.10;77.50;;;;;;5032777;28;20537;-76
2022/03/19 09:57:54;;;;;;;10.60;3.03;;;12.10;75.00;;;;;;5033281;28;20173;-77
2022/03/19 10:00:22;;;;;;;13.90;2.80;;;11.90;77.00;;;;;;5033518;28;20266;-77
2022/03/19 10:02:59;;;;;;;12.20;3.00;;;12.10;76.40;;;;;;5066030;23;20301;-84
2022/03/19 10:10:59;;;;;;;9.87;2.33;;;12.80;76.10;;;;;;5054837;28;20219;-86
2022/03/19 10:13:26;;;;;;;9.60;2.50;;;12.50;72.70;;;;;;5054119;28;20169;-85
2022/03/19 10:15:52;;;;;;;7.50;2.20;;;12.60;73.10;;;;;;5059182;23;20212;-81
2022/03/19 10:18:25;;;;;;;10.00;2.50;;;12.40;74.50;;;;;;5040152;28;20212;-80
2022/03/19 10:20:51;;;;;;;7.10;1.97;;;12.40;72.60;;;;;;5039017;28;20183;-81
2022/03/19 10:23:28;;;;;;;6.93;2.27;;;12.30;71.70;;;;;;5039073;28;20211;-80
2022/03/19 10:25:54;;;;;;;6.60;2.00;;;12.60;72.00;;;;;;5041571;28;20166;-80
2022/03/19 10:28:28;;;;;;;6.60;1.90;;;12.70;71.60;;;;;;5040594;28;20202;-79
2022/03/19 10:30:54;;;;;;;4.27;1.90;;;12.60;71.80;;;;;;5036648;28;20692;-80
2022/03/19 10:33:31;;;;;;;6.17;2.03;;;12.60;70.90;;;;;;5036432;28;20171;-80
2022/03/19 10:36:11;;;;;;;10.80;2.20;;;12.30;73.80;;;;;;5037490;28;20530;-81
2022/03/19 10:38:45;;;;;;;4.47;1.60;;;12.60;71.10;;;;;;5036446;28;20300;-81
2022/03/19 10:41:16;;;;;;;4.67;1.90;;;12.50;68.00;;;;;;5036512;28;20176;-81
2022/03/19 10:43:45;;;;;;;9.93;2.23;;;12.80;68.60;;;;;;5036646;28;20548;-79
2022/03/19 10:46:11;;;;;;;3.83;1.47;;;12.60;69.50;;;;;;5037303;28;20220;-80
2022/03/19 10:48:36;;;;;;;9.17;1.90;;;12.50;66.50;;;;;;5034531;28;20196;-79
2022/03/19 10:51:08;;;;;;;8.40;1.73;;;12.80;68.90;;;;;;5036016;28;20198;-79
2022/03/19 10:53:34;;;;;;;5.97;2.00;;;13.10;68.80;;;;;;5035893;28;20177;-80
2022/03/19 10:56:01;;;;;;;4.43;1.80;;;12.90;66.40;;;;;;5037431;28;20170;-80
2022/03/19 10:58:27;;;;;;;4.23;1.50;;;13.00;67.70;;;;;;5036762;28;20318;-80
2022/03/19 11:00:53;;;;;;;7.03;1.60;;;13.10;68.70;;;;;;5035805;28;20243;-80
2022/03/19 11:03:30;;;;;;;3.33;1.90;;;12.90;68.60;;;;;;5038016;28;20695;-80
2022/03/19 11:06:04;;;;;;;3.47;1.37;;;12.90;68.90;;;;;;5038783;28;20162;-79
2022/03/19 11:08:38;;;;;;;8.43;1.90;;;12.90;65.30;;;;;;5034623;28;20253;-79
2022/03/19 11:11:32;;;;;;;4.03;1.40;;;12.60;65.90;;;;;;5031260;28;20220;-81
2022/03/19 11:13:58;;;;;;;3.77;1.20;;;12.90;64.70;;;;;;5031191;28;20181;-80
2022/03/19 11:16:26;;;;;;;5.30;1.50;;;12.60;64.30;;;;;;5033604;28;20190;-81
2022/03/19 11:18:53;;;;;;;5.00;1.47;;;13.20;67.30;;;;;;5032741;28;20317;-81
2022/03/19 11:21:19;;;;;;;9.17;1.70;;;13.40;67.10;;;;;;5034834;28;20223;-80
2022/03/19 11:24:01;;;;;;;7.53;2.23;;;13.30;67.00;;;;;;5036797;28;20170;-80
2022/03/19 11:26:29;;;;;;;7.37;1.73;;;13.40;66.50;;;;;;5036700;28;20173;-81
2022/03/19 11:28:55;;;;;;;2.20;1.50;;;13.50;67.90;;;;;;5035992;28;20293;-81
2022/03/19 11:31:29;;;;;;;6.23;1.50;;;13.10;66.00;;;;;;5035387;28;20201;-81
2022/03/19 11:34:12;;;;;;;9.03;1.67;;;13.30;66.30;;;;;;5035847;28;20179;-80
2022/03/19 11:36:57;;;;;;;4.83;1.50;;;13.10;66.80;;;;;;5035302;28;20170;-78
2022/03/19 11:39:24;;;;;;;3.93;1.50;;;13.00;66.70;;;;;;5040681;28;20187;-81
2022/03/19 11:41:50;;;;;;;5.37;2.00;;;13.10;68.50;;;;;;5040177;28;20174;-80
2022/03/19 11:44:24;;;;;;;3.50;1.53;;;13.00;66.50;;;;;;5039891;28;20199;-81
2022/03/19 11:47:06;;;;;;;4.33;1.67;;;13.10;68.00;;;;;;5040348;28;20174;-81
2022/03/19 11:49:54;;;;;;;2.67;1.47;;;13.20;64.70;;;;;;5038958;28;20284;-81
2022/03/19 11:52:26;;;;;;;2.20;1.40;;;13.20;66.60;;;;;;5040625;28;20201;-81
2022/03/19 11:55:04;;;;;;;4.10;1.53;;;13.40;63.30;;;;;;5037210;28;20268;-81
2022/03/19 11:57:55;;;;;;;2.13;1.30;;;13.40;64.90;;;;;;5036767;28;20510;-81
2022/03/19 12:00:24;;;;;;;2.57;1.40;;;13.50;65.00;;;;;;5035439;28;20242;-80
2022/03/19 12:03:24;;;;;;;4.93;1.60;;;14.00;64.50;;;;;;5033777;28;20260;-80
2022/03/19 12:05:50;;;;;;;6.50;1.57;;;14.50;62.40;;;;;;5036182;28;20672;-81
2022/03/19 12:08:23;;;;;;;5.30;1.27;;;14.40;62.60;;;;;;5040581;28;20186;-79
2022/03/19 12:10:57;;;;;;;1.80;1.33;;;14.10;63.90;;;;;;5038737;28;20201;-79
2022/03/19 12:13:26;;;;;;;6.00;1.40;;;13.20;63.20;;;;;;5037956;28;20197;-79
2022/03/19 12:15:53;;;;;;;3.37;1.40;;;13.10;66.50;;;;;;5037541;28;20196;-79
2022/03/19 12:18:27;;;;;;;2.43;1.43;;;13.10;64.90;;;;;;5037845;28;20198;-80
2022/03/19 12:20:59;;;;;;;5.03;1.80;;;12.90;65.00;;;;;;5037963;28;20170;-79
2022/03/19 12:23:29;;;;;;;3.40;1.43;;;13.30;65.60;;;;;;5037724;28;20710;-80
2022/03/19 12:26:03;;;;;;;4.20;1.67;;;13.20;65.90;;;;;;5037956;28;20264;-79
2022/03/19 12:28:30;;;;;;;6.10;1.97;;;13.20;64.70;;;;;;5037195;28;20246;-79
2022/03/19 12:31:12;;;;;;;4.10;2.00;;;12.80;65.00;;;;;;5039758;28;20205;-78
2022/03/19 12:33:38;;;;;;;2.87;1.23;;;13.00;65.30;;;;;;5039659;28;20168;-78
2022/03/19 12:36:11;;;;;;;2.77;1.60;;;13.00;66.50;;;;;;5039833;28;20176;-78
2022/03/19 12:38:36;;;;;;;5.03;1.57;;;13.00;66.30;;;;;;5037490;28;20967;-79
2022/03/19 12:43:46;;;;;;;4.47;1.70;;;13.00;66.10;;;;;;5039939;28;20192;-79
2022/03/19 12:46:20;;;;;;;7.47;1.90;;;12.90;66.00;;;;;;5037793;28;20275;-79
2022/03/19 12:48:46;;;;;;;7.23;2.00;;;13.00;66.20;;;;;;5038034;28;20290;-79
2022/03/19 12:51:22;;;;;;;6.63;1.87;;;12.60;66.50;;;;;;5036867;28;20664;-79
2022/03/19 12:53:48;;;;;;;8.70;1.97;;;12.60;67.50;;;;;;5039613;28;20229;-79
2022/03/19 12:56:22;;;;;;;4.30;1.70;;;12.30;67.20;;;;;;5038280;28;20172;-79
2022/03/19 12:58:50;;;;;;;8.00;1.90;;;12.30;67.30;;;;;;5038894;28;20281;-79
2022/03/19 13:01:22;;;;;;;6.47;2.10;;;12.20;66.80;;;;;;5039980;28;20243;-79
2022/03/19 13:03:52;;;;;;;3.07;1.70;;;12.30;67.80;;;;;;5040197;28;20276;-80
2022/03/19 13:06:30;;;;;;;5.83;1.60;;;12.00;68.30;;;;;;5040957;28;20235;-80
2022/03/19 13:08:56;;;;;;;5.50;1.73;;;12.00;69.30;;;;;;5041216;28;20221;-80
2022/03/19 13:11:22;;;;;;;7.70;1.97;;;12.00;70.00;;;;;;5041747;28;20205;-80